createdAt,value
2023-03-22T00:04:26.633Z,2.61
2023-03-22T00:09:28.120Z,2.56
2023-03-22T00:14:29.858Z,2.63
2023-03-22T00:19:34.016Z,2.61
2023-03-22T00:24:35.566Z,2.50
2023-03-22T00:29:37.313Z,2.36
2023-03-22T00:34:38.908Z,2.25
2023-03-22T00:39:40.425Z,2.11
2023-03-22T00:44:41.920Z,2.06
2023-03-22T00:49:43.515Z,2.10
2023-03-22T00:54:45.254Z,2.10
2023-03-22T00:59:46.878Z,1.91
2023-03-22T01:04:49.931Z,1.56
2023-03-22T01:09:51.934Z,1.29
2023-03-22T01:14:53.448Z,1.06
2023-03-22T01:19:55.034Z,0.97
2023-03-22T01:24:56.523Z,0.93
2023-03-22T01:29:58.069Z,0.87
2023-03-22T01:34:59.779Z,0.87
2023-03-22T01:40:01.285Z,0.93
2023-03-22T01:45:14.818Z,1.10
2023-03-22T01:50:17.858Z,1.18
2023-03-22T01:55:22.897Z,1.17
2023-03-22T02:00:24.445Z,1.12
2023-03-22T02:05:26.505Z,0.91
2023-03-22T02:10:28.731Z,0.70
2023-03-22T02:15:43.583Z,0.62
2023-03-22T02:21:22.585Z,0.69
2023-03-22T02:26:30.495Z,0.82
2023-03-22T02:31:52.830Z,0.91
2023-03-22T02:37:21.065Z,0.87
2023-03-22T02:42:27.406Z,0.82
2023-03-22T02:47:44.794Z,0.87
2023-03-22T02:52:54.075Z,0.85
2023-03-22T02:58:03.211Z,0.74
2023-03-22T03:03:12.680Z,0.70
2023-03-22T03:08:17.327Z,0.74
2023-03-22T03:13:19.439Z,0.83
2023-03-22T03:18:32.237Z,0.94
2023-03-22T03:23:52.114Z,1.04
2023-03-22T03:29:02.127Z,1.02
2023-03-22T03:34:06.313Z,1.10
2023-03-22T03:39:12.240Z,1.12
2023-03-22T03:44:15.449Z,1.04
2023-03-22T03:49:18.047Z,1.01
2023-03-22T03:54:21.053Z,1.06
2023-03-22T03:59:22.615Z,1.10
2023-03-22T04:04:27.715Z,1.06
2023-03-22T04:09:32.423Z,1.00
2023-03-22T04:14:33.938Z,1.06
2023-03-22T04:19:35.430Z,1.16
2023-03-22T04:24:37.915Z,1.15
2023-03-22T04:29:39.391Z,1.14
2023-03-22T04:34:40.924Z,1.21
2023-03-22T04:39:43.134Z,1.27
2023-03-22T04:44:44.678Z,1.25
2023-03-22T04:49:46.169Z,1.19
2023-03-22T04:54:47.686Z,1.15
2023-03-22T04:59:49.174Z,1.27
2023-03-22T05:04:51.065Z,1.38
2023-03-22T05:09:52.590Z,1.47
2023-03-22T05:14:54.103Z,1.49
2023-03-22T05:19:55.662Z,1.54
2023-03-22T05:24:57.213Z,1.55
2023-03-22T05:29:58.706Z,1.58
2023-03-22T05:35:04.785Z,1.63
2023-03-22T05:40:09.981Z,1.76
2023-03-22T05:45:11.909Z,1.98
2023-03-22T05:50:17.353Z,2.12
2023-03-22T05:55:19.641Z,2.23
2023-03-22T06:00:27.760Z,2.38
2023-03-22T06:05:35.988Z,2.65
2023-03-22T06:10:37.606Z,2.92
2023-03-22T06:15:39.218Z,3.06
2023-03-22T06:20:41.207Z,3.23
2023-03-22T06:25:43.660Z,3.38
2023-03-22T06:30:45.377Z,3.57
2023-03-22T06:35:47.006Z,3.72
2023-03-22T06:40:48.481Z,3.78
2023-03-22T06:45:50.033Z,3.89
2023-03-22T06:50:51.601Z,4.03
2023-03-22T06:55:55.294Z,4.04
2023-03-22T07:00:57.308Z,4.12
2023-03-22T07:06:04.239Z,4.35
2023-03-22T07:11:06.833Z,4.64
2023-03-22T07:16:09.896Z,4.87
2023-03-22T07:21:11.588Z,5.06
2023-03-22T07:26:13.529Z,5.26
2023-03-22T07:31:15.365Z,5.44
2023-03-22T07:36:17.047Z,5.59
2023-03-22T07:41:18.741Z,5.68
2023-03-22T07:46:20.308Z,5.87
2023-03-22T07:51:21.872Z,6.04
2023-03-22T07:56:23.392Z,6.05
2023-03-22T08:01:25.714Z,6.11
2023-03-22T08:06:27.227Z,6.24
2023-03-22T08:11:29.088Z,6.31
2023-03-22T08:16:31.181Z,6.34
2023-03-22T08:21:32.866Z,6.40
2023-03-22T08:26:34.392Z,6.60
2023-03-22T08:31:35.889Z,6.83
2023-03-22T08:36:38.192Z,7.00
2023-03-22T08:41:40.321Z,7.22
2023-03-22T08:46:41.864Z,7.62
2023-03-22T08:51:43.415Z,8.09
2023-03-22T08:56:44.897Z,8.55
2023-03-22T09:01:46.522Z,9.01
2023-03-22T09:06:48.239Z,9.57
2023-03-22T09:11:49.745Z,9.97
2023-03-22T09:16:51.860Z,10.27
2023-03-22T09:21:53.781Z,10.55
2023-03-22T09:26:55.457Z,10.78
2023-03-22T09:31:57.166Z,10.95
2023-03-22T09:37:02.375Z,11.10
2023-03-22T09:42:07.702Z,11.11
2023-03-22T09:47:17.889Z,11.00
2023-03-22T09:52:19.585Z,11.05
2023-03-22T09:57:35.268Z,11.20
2023-03-22T10:02:43.007Z,11.30
2023-03-22T10:08:03.394Z,11.32
2023-03-22T10:13:29.307Z,11.43
2023-03-22T10:18:38.996Z,11.49
2023-03-22T10:23:46.697Z,11.67
2023-03-22T10:29:00.807Z,11.87
2023-03-22T10:34:14.239Z,11.82
2023-03-22T10:39:40.057Z,11.81
2023-03-22T10:44:53.664Z,11.90
2023-03-22T10:49:57.203Z,12.17
2023-03-22T10:55:03.729Z,12.44
2023-03-22T11:00:12.606Z,12.75
2023-03-22T11:05:26.705Z,12.97
2023-03-22T11:10:32.978Z,12.94
2023-03-22T11:15:38.884Z,12.85
2023-03-22T11:20:42.420Z,12.78
2023-03-22T11:25:49.957Z,12.75
2023-03-22T11:31:19.336Z,12.72
2023-03-22T11:36:20.901Z,12.67
2023-03-22T11:41:27.926Z,12.64
2023-03-22T11:46:30.911Z,12.57
2023-03-22T11:51:36.202Z,12.67
2023-03-22T11:56:42.759Z,12.81
2023-03-22T12:02:11.464Z,12.94
2023-03-22T12:07:22.174Z,12.99
2023-03-22T12:12:34.982Z,13.03
2023-03-22T12:17:54.924Z,13.19
2023-03-22T12:22:56.992Z,13.35
2023-03-22T12:28:03.989Z,13.53
2023-03-22T12:33:12.236Z,13.68
2023-03-22T12:38:22.702Z,13.82
2023-03-22T12:43:55.385Z,13.88
2023-03-22T12:49:06.423Z,13.98
2023-03-22T12:54:12.847Z,14.09
2023-03-22T12:59:28.762Z,14.15
2023-03-22T13:04:36.375Z,14.27
2023-03-22T13:09:42.627Z,14.42
2023-03-22T13:14:50.382Z,14.47
2023-03-22T13:20:25.739Z,14.42
2023-03-22T13:25:39.023Z,14.32
2023-03-22T13:30:52.675Z,14.17
2023-03-22T13:36:25.288Z,14.11
2023-03-22T13:41:28.327Z,14.09
2023-03-22T13:46:46.811Z,14.09
2023-03-22T13:51:49.618Z,14.18
2023-03-22T13:57:01.020Z,14.19
2023-03-22T14:02:30.923Z,14.13
2023-03-22T14:07:44.936Z,14.03
2023-03-22T14:12:58.138Z,13.97
2023-03-22T14:18:04.372Z,13.82
